Time;durP1;ratioP1;P1;durP2;ratioP2;P2;SDS_P1;SDS_P2;PMS_P1;PMS_P2;Temp;Humidity;BMP_temperature;BMP_pressure;BME280_temperature;BME280_humidity;BME280_pressure;Samples;Min_cycle;Max_cycle;Signal;HPM_P1;HPM_P2
2020/07/19 00:00:06;;;;;;;5.45;5;;;;;;;15.98;78.15918;95449.04;;;;
2020/07/19 00:02:10;;;;;;;5.45;5;;;;;;;15.98;78.15918;95449.04;;;;
2020/07/19 07:10:18;;;;;;;0;0;;;;;;;0;0;0;;;;
2020/07/19 07:11:25;;;;;;;0;0;;;;;;;0;0;0;;;;
2020/07/19 07:12:31;;;;;;;0;0;;;;;;;0;0;0;;;;
2020/07/19 07:13:35;;;;;;;0;0;;;;;;;0;0;0;;;;
2020/07/19 07:14:45;;;;;;;0;0;;;;;;;0;0;0;;;;
2020/07/19 07:15:52;;;;;;;0;0;;;;;;;0;0;0;;;;
2020/07/19 07:17:04;;;;;;;0;0;;;;;;;0;0;0;;;;
2020/07/19 07:18:07;;;;;;;0;0;;;;;;;0;0;0;;;;
2020/07/19 07:19:08;;;;;;;0;0;;;;;;;0;0;0;;;;
2020/07/19 07:20:11;;;;;;;0;0;;;;;;;0;0;0;;;;
2020/07/19 07:21:12;;;;;;;0;0;;;;;;;0;0;0;;;;
2020/07/19 07:22:12;;;;;;;0;0;;;;;;;0;0;0;;;;
2020/07/19 07:23:17;;;;;;;0;0;;;;;;;0;0;0;;;;
2020/07/19 07:24:20;;;;;;;0;0;;;;;;;0;0;0;;;;
2020/07/19 07:25:23;;;;;;;0;0;;;;;;;0;0;0;;;;
2020/07/19 07:26:24;;;;;;;0;0;;;;;;;0;0;0;;;;
2020/07/19 07:27:25;;;;;;;0;0;;;;;;;0;0;0;;;;
2020/07/19 07:28:28;;;;;;;0;0;;;;;;;0;0;0;;;;
2020/07/19 07:29:28;;;;;;;0;0;;;;;;;0;0;0;;;;
2020/07/19 07:30:29;;;;;;;0;0;;;;;;;0;0;0;;;;
2020/07/19 07:31:32;;;;;;;0;0;;;;;;;0;0;0;;;;
2020/07/19 07:32:38;;;;;;;0;0;;;;;;;0;0;0;;;;
2020/07/19 07:33:38;;;;;;;0;0;;;;;;;0;0;0;;;;
2020/07/19 07:34:43;;;;;;;0;0;;;;;;;0;0;0;;;;
2020/07/19 07:35:46;;;;;;;0;0;;;;;;;0;0;0;;;;
2020/07/19 07:36:48;;;;;;;0;0;;;;;;;0;0;0;;;;
2020/07/19 07:37:51;;;;;;;0;0;;;;;;;0;0;0;;;;
2020/07/19 07:38:58;;;;;;;0;0;;;;;;;0;0;0;;;;
2020/07/19 07:40:01;;;;;;;0;0;;;;;;;0;0;0;;;;
2020/07/19 07:41:01;;;;;;;0;0;;;;;;;0;0;0;;;;
2020/07/19 07:42:10;;;;;;;0;0;;;;;;;0;0;0;;;;
2020/07/19 07:43:18;;;;;;;0;0;;;;;;;0;0;0;;;;
2020/07/19 07:44:23;;;;;;;0;0;;;;;;;0;0;0;;;;
2020/07/19 07:45:28;;;;;;;0;0;;;;;;;0;0;0;;;;
2020/07/19 07:46:35;;;;;;;0;0;;;;;;;0;0;0;;;;
2020/07/19 07:47:39;;;;;;;0;0;;;;;;;0;0;0;;;;
2020/07/19 07:48:40;;;;;;;0;0;;;;;;;0;0;0;;;;
2020/07/19 07:49:42;;;;;;;0;0;;;;;;;0;0;0;;;;
2020/07/19 07:50:47;;;;;;;0;0;;;;;;;0;0;0;;;;
2020/07/19 07:51:49;;;;;;;0;0;;;;;;;0;0;0;;;;
2020/07/19 07:52:50;;;;;;;0;0;;;;;;;0;0;0;;;;
2020/07/19 07:53:53;;;;;;;0;0;;;;;;;0;0;0;;;;
2020/07/19 07:55:02;;;;;;;0;0;;;;;;;0;0;0;;;;
2020/07/19 07:56:03;;;;;;;0;0;;;;;;;0;0;0;;;;
2020/07/19 07:57:07;;;;;;;0;0;;;;;;;0;0;0;;;;
2020/07/19 07:58:10;;;;;;;0;0;;;;;;;0;0;0;;;;
2020/07/19 07:59:11;;;;;;;0;0;;;;;;;0;0;0;;;;
2020/07/19 08:00:12;;;;;;;0;0;;;;;;;0;0;0;;;;
2020/07/19 08:01:22;;;;;;;0;0;;;;;;;0;0;0;;;;
2020/07/19 08:02:39;;;;;;;0;0;;;;;;;0;0;0;;;;
2020/07/19 08:03:49;;;;;;;0;0;;;;;;;0;0;0;;;;
2020/07/19 08:04:52;;;;;;;0;0;;;;;;;0;0;0;;;;
2020/07/19 08:05:54;;;;;;;0;0;;;;;;;0;0;0;;;;
2020/07/19 08:06:58;;;;;;;0;0;;;;;;;0;0;0;;;;
2020/07/19 08:08:00;;;;;;;0;0;;;;;;;0;0;0;;;;
2020/07/19 08:09:02;;;;;;;0;0;;;;;;;0;0;0;;;;
2020/07/19 08:10:10;;;;;;;0;0;;;;;;;0;0;0;;;;
2020/07/19 08:11:24;;;;;;;0;0;;;;;;;0;0;0;;;;
2020/07/19 08:12:38;;;;;;;0;0;;;;;;;0;0;0;;;;
2020/07/19 08:13:43;;;;;;;0;0;;;;;;;0;0;0;;;;
2020/07/19 08:14:50;;;;;;;0;0;;;;;;;0;0;0;;;;
2020/07/19 08:15:51;;;;;;;0;0;;;;;;;0;0;0;;;;
2020/07/19 08:17:06;;;;;;;0;0;;;;;;;0;0;0;;;;
2020/07/19 08:18:09;;;;;;;0;0;;;;;;;0;0;0;;;;
2020/07/19 08:19:12;;;;;;;0;0;;;;;;;0;0;0;;;;
2020/07/19 08:20:12;;;;;;;0;0;;;;;;;0;0;0;;;;
2020/07/19 08:21:17;;;;;;;0;0;;;;;;;0;0;0;;;;
2020/07/19 08:22:17;;;;;;;0;0;;;;;;;0;0;0;;;;
2020/07/19 08:23:21;;;;;;;0;0;;;;;;;0;0;0;;;;
2020/07/19 08:24:22;;;;;;;0;0;;;;;;;0;0;0;;;;
2020/07/19 08:25:25;;;;;;;0;0;;;;;;;0;0;0;;;;
2020/07/19 08:26:29;;;;;;;0;0;;;;;;;0;0;0;;;;
2020/07/19 08:27:32;;;;;;;0;0;;;;;;;0;0;0;;;;
2020/07/19 08:28:34;;;;;;;0;0;;;;;;;0;0;0;;;;
2020/07/19 08:29:36;;;;;;;0;0;;;;;;;0;0;0;;;;
2020/07/19 08:30:36;;;;;;;0;0;;;;;;;0;0;0;;;;
2020/07/19 08:31:37;;;;;;;0;0;;;;;;;0;0;0;;;;
2020/07/19 08:32:37;;;;;;;0;0;;;;;;;0;0;0;;;;
2020/07/19 08:33:41;;;;;;;0;0;;;;;;;0;0;0;;;;
2020/07/19 08:34:43;;;;;;;0;0;;;;;;;0;0;0;;;;
2020/07/19 08:35:43;;;;;;;0;0;;;;;;;0;0;0;;;;
2020/07/19 08:36:48;;;;;;;0;0;;;;;;;0;0;0;;;;
2020/07/19 08:37:48;;;;;;;0;0;;;;;;;0;0;0;;;;
2020/07/19 08:38:56;;;;;;;0;0;;;;;;;0;0;0;;;;
2020/07/19 08:40:01;;;;;;;0;0;;;;;;;0;0;0;;;;
2020/07/19 08:41:06;;;;;;;0;0;;;;;;;0;0;0;;;;
2020/07/19 08:42:46;;;;;;;0;0;;;;;;;0;0;0;;;;
2020/07/19 08:43:50;;;;;;;0;0;;;;;;;0;0;0;;;;
2020/07/19 08:44:55;;;;;;;0;0;;;;;;;0;0;0;;;;
2020/07/19 08:45:58;;;;;;;0;0;;;;;;;0;0;0;;;;
2020/07/19 08:47:02;;;;;;;0;0;;;;;;;0;0;0;;;;
2020/07/19 08:48:03;;;;;;;0;0;;;;;;;0;0;0;;;;
2020/07/19 08:49:05;;;;;;;0;0;;;;;;;0;0;0;;;;
2020/07/19 08:50:06;;;;;;;0;0;;;;;;;0;0;0;;;;
2020/07/19 08:51:09;;;;;;;0;0;;;;;;;0;0;0;;;;
2020/07/19 08:52:10;;;;;;;0;0;;;;;;;0;0;0;;;;
2020/07/19 08:53:15;;;;;;;0;0;;;;;;;0;0;0;;;;
2020/07/19 08:54:16;;;;;;;0;0;;;;;;;0;0;0;;;;
2020/07/19 08:55:20;;;;;;;0;0;;;;;;;0;0;0;;;;
2020/07/19 08:56:24;;;;;;;0;0;;;;;;;0;0;0;;;;
2020/07/19 08:57:29;;;;;;;0;0;;;;;;;0;0;0;;;;
2020/07/19 08:58:30;;;;;;;0;0;;;;;;;0;0;0;;;;
2020/07/19 08:59:32;;;;;;;0;0;;;;;;;0;0;0;;;;
2020/07/19 09:00:36;;;;;;;0;0;;;;;;;0;0;0;;;;
2020/07/19 09:01:58;;;;;;;0;0;;;;;;;0;0;0;;;;
2020/07/19 09:03:31;;;;;;;0;0;;;;;;;0;0;0;;;;
2020/07/19 09:05:07;;;;;;;0;0;;;;;;;0;0;0;;;;
2020/07/19 09:06:29;;;;;;;0;0;;;;;;;0;0;0;;;;
2020/07/19 09:11:40;;;;;;;4.3;3.8;;;;;;;34.86;49.41211;95349.98;;;;
2020/07/19 09:12:46;;;;;;;4.3;3.8;;;;;;;34.86;49.41211;95349.98;;;;
2020/07/19 09:13:48;;;;;;;4.3;3.8;;;;;;;34.86;49.41211;95349.98;;;;
2020/07/19 09:14:52;;;;;;;4.3;3.8;;;;;;;34.86;49.41211;95349.98;;;;
2020/07/19 09:16:00;;;;;;;4.3;3.8;;;;;;;34.86;49.41211;95349.98;;;;
2020/07/19 09:17:07;;;;;;;4.3;3.8;;;;;;;34.86;49.41211;95349.98;;;;
2020/07/19 09:18:13;;;;;;;4.3;3.8;;;;;;;34.86;49.41211;95349.98;;;;
2020/07/19 09:19:21;;;;;;;4.3;3.8;;;;;;;34.86;49.41211;95349.98;;;;
2020/07/19 09:20:29;;;;;;;4.25;3.95;;;;;;;37.55;42.23828;95352.64;;;;
2020/07/19 09:25:30;;;;;;;4.25;3.95;;;;;;;37.55;42.23828;95352.64;;;;
2020/07/19 09:32:41;;;;;;;4.1;3.8;;;;;;;39.11;38.38281;95356.27;;;;
2020/07/19 09:38:12;;;;;;;4.1;3.8;;;;;;;39.11;38.38281;95356.27;;;;
2020/07/19 09:44:51;;;;;;;4.199999;3.9;;;;;;;40.47;34.58496;95351.33;;;;
2020/07/19 09:54:29;;;;;;;4.199999;3.9;;;;;;;40.47;34.58496;95351.33;;;;
2020/07/19 10:00:58;;;;;;;4.199999;3.9;;;;;;;40.47;34.58496;95351.33;;;;
2020/07/19 10:10:22;;;;;;;4.199999;3.9;;;;;;;40.47;34.58496;95351.33;;;;
2020/07/19 10:16:13;;;;;;;4.199999;3.9;;;;;;;40.47;34.58496;95351.33;;;;
2020/07/19 10:25:38;;;;;;;4.099999;3.7;;;;;;;38.87;29.34082;95330.84;;;;
2020/07/19 10:32:11;;;;;;;4.45;4.1;;;;;;;35.41;31.74609;95320.87;;;;
2020/07/19 10:34:44;;;;;;;4.45;4.1;;;;;;;35.41;31.74609;95320.87;;;;
2020/07/19 10:44:09;;;;;;;4.45;4.1;;;;;;;35.41;31.74609;95320.87;;;;
2020/07/19 10:53:32;;;;;;;4.45;4.1;;;;;;;35.41;31.74609;95320.87;;;;
2020/07/19 10:59:20;;;;;;;4.45;4.1;;;;;;;35.41;31.74609;95320.87;;;;
2020/07/19 11:01:34;;;;;;;4.45;4.1;;;;;;;35.41;31.74609;95320.87;;;;
2020/07/19 11:10:57;;;;;;;4.45;4.1;;;;;;;35.41;31.74609;95320.87;;;;
2020/07/19 11:13:20;;;;;;;4.45;4.1;;;;;;;35.41;31.74609;95320.87;;;;
